createdAt,value
2022-12-26T06:32:23.238Z,1.73
2022-12-26T06:34:50.350Z,1.60
2022-12-26T06:37:17.485Z,1.60
2022-12-26T06:39:45.014Z,1.80
2022-12-26T06:42:12.129Z,2.47
2022-12-26T06:44:39.251Z,2.85
2022-12-26T06:47:06.711Z,2.13
2022-12-26T06:49:33.839Z,1.75
2022-12-26T06:52:01.000Z,1.60
2022-12-26T06:54:28.142Z,2.13
2022-12-26T06:56:55.300Z,1.60
2022-12-26T06:59:22.603Z,1.83
2022-12-26T07:01:49.935Z,2.08
2022-12-26T07:04:17.477Z,2.25
2022-12-26T07:06:44.613Z,1.80
2022-12-26T07:09:14.780Z,2.20
2022-12-26T07:11:45.714Z,2.17
2022-12-26T07:14:13.533Z,2.50
2022-12-26T07:16:43.312Z,2.03
2022-12-26T07:19:12.168Z,2.60
2022-12-26T07:21:41.056Z,2.17
2022-12-26T07:24:16.577Z,2.70
2022-12-26T07:26:44.907Z,2.28
2022-12-26T07:29:13.330Z,2.30
2022-12-26T07:31:41.309Z,2.00
2022-12-26T07:34:08.770Z,2.28
2022-12-26T07:36:35.948Z,2.97
2022-12-26T07:39:03.415Z,2.85
2022-12-26T07:41:51.071Z,2.83
2022-12-26T07:44:18.208Z,3.67
2022-12-26T07:46:46.747Z,2.80
2022-12-26T07:49:14.098Z,4.65
2022-12-26T07:51:42.002Z,2.90
2022-12-26T07:54:11.628Z,2.72
2022-12-26T07:56:40.079Z,2.72
2022-12-26T07:59:07.896Z,2.78
2022-12-26T08:01:35.118Z,2.65
2022-12-26T08:04:02.413Z,2.60
2022-12-26T08:06:29.938Z,2.53
2022-12-26T08:08:57.116Z,3.15
2022-12-26T08:11:25.068Z,2.90
2022-12-26T08:13:52.666Z,3.17
2022-12-26T08:16:20.610Z,2.72
2022-12-26T08:18:48.281Z,3.85
2022-12-26T08:21:15.874Z,3.20
2022-12-26T08:23:43.072Z,3.15
2022-12-26T08:26:12.599Z,3.28
2022-12-26T08:28:39.762Z,3.40
2022-12-26T08:31:08.626Z,3.33
2022-12-26T08:33:35.961Z,4.07
2022-12-26T08:36:04.912Z,3.75
2022-12-26T08:38:34.121Z,4.18
2022-12-26T08:41:01.941Z,3.78
2022-12-26T08:43:45.347Z,4.43
2022-12-26T08:46:17.637Z,3.97
2022-12-26T08:48:46.462Z,4.35
2022-12-26T08:51:18.236Z,4.45
2022-12-26T08:53:46.807Z,4.35
2022-12-26T08:56:16.950Z,3.83
2022-12-26T08:58:45.007Z,4.75
2022-12-26T09:01:16.393Z,4.07
2022-12-26T09:03:44.445Z,4.40
2022-12-26T09:06:13.653Z,4.70
2022-12-26T09:08:41.709Z,5.03
2022-12-26T09:11:12.319Z,5.22
2022-12-26T09:13:40.403Z,4.45
2022-12-26T09:16:17.049Z,4.57
2022-12-26T09:18:45.970Z,3.90
2022-12-26T09:21:14.793Z,4.72
2022-12-26T09:23:42.674Z,4.60
2022-12-26T09:26:12.898Z,4.57
2022-12-26T09:28:40.876Z,3.63
2022-12-26T09:31:12.858Z,2.55
2022-12-26T09:33:40.347Z,3.30
2022-12-26T09:36:14.729Z,3.28
2022-12-26T09:38:43.922Z,2.33
2022-12-26T09:41:45.400Z,2.35
2022-12-26T09:49:42.786Z,2.75
2022-12-26T09:52:15.053Z,3.33
2022-12-26T09:54:49.586Z,2.75
2022-12-26T09:57:20.100Z,2.00
2022-12-26T09:59:55.479Z,1.90
2022-12-26T10:02:26.718Z,2.08
2022-12-26T10:04:55.026Z,1.80
2022-12-26T10:07:44.048Z,1.42
2022-12-26T10:10:32.699Z,1.70
2022-12-26T10:13:26.391Z,1.60
2022-12-26T10:16:00.129Z,2.08
2022-12-26T10:21:41.864Z,2.00
2022-12-26T10:24:16.545Z,2.38
2022-12-26T10:26:49.911Z,2.00
2022-12-26T10:29:26.755Z,1.75
2022-12-26T10:32:00.123Z,2.08
2022-12-26T10:34:46.178Z,1.58
2022-12-26T10:37:37.312Z,1.92
2022-12-26T10:40:20.831Z,1.83
2022-12-26T10:42:53.690Z,1.35
2022-12-26T10:45:32.935Z,1.38
2022-12-26T10:48:00.391Z,1.55
2022-12-26T10:50:30.855Z,1.95
2022-12-26T10:53:00.317Z,1.85
2022-12-26T10:55:34.811Z,1.65
2022-12-26T10:58:13.280Z,1.90
2022-12-26T11:00:40.454Z,1.70
2022-12-26T11:03:13.542Z,1.50
2022-12-26T11:08:43.098Z,1.27
2022-12-26T11:11:20.478Z,1.20
2022-12-26T11:14:01.344Z,1.40
2022-12-26T11:16:34.636Z,1.33
2022-12-26T11:19:02.461Z,1.00
2022-12-26T11:21:32.221Z,1.33
2022-12-26T11:24:20.710Z,1.35
2022-12-26T11:26:48.352Z,1.00
2022-12-26T11:29:19.007Z,1.00
2022-12-26T11:32:02.961Z,0.77
2022-12-26T11:34:38.548Z,0.98
2022-12-26T11:37:07.329Z,1.20
2022-12-26T11:39:37.291Z,0.80
2022-12-26T11:42:14.494Z,1.02
2022-12-26T11:44:45.398Z,1.05
2022-12-26T11:47:15.996Z,0.90
2022-12-26T11:50:07.555Z,0.75
2022-12-26T11:52:40.498Z,1.20
2022-12-26T11:58:20.464Z,1.40
2022-12-26T12:01:05.607Z,1.05
2022-12-26T12:03:48.970Z,0.95
2022-12-26T12:09:26.774Z,0.90
2022-12-26T12:12:20.182Z,1.08
2022-12-26T12:15:13.399Z,0.88
2022-12-26T12:18:08.926Z,1.00
2022-12-26T12:21:05.382Z,0.88
2022-12-26T12:23:47.250Z,0.90
2022-12-26T12:26:26.943Z,0.73
2022-12-26T12:29:24.313Z,0.93
2022-12-26T12:32:09.934Z,0.80
2022-12-26T12:35:16.937Z,1.00
2022-12-26T12:41:09.925Z,1.08
2022-12-26T12:46:49.453Z,0.77
2022-12-26T12:49:42.410Z,0.90
2022-12-26T12:55:29.017Z,0.93
2022-12-26T12:58:36.115Z,1.20
2022-12-26T13:01:26.547Z,1.15
2022-12-26T13:04:05.108Z,0.90
2022-12-26T13:06:54.659Z,0.93
2022-12-26T13:09:29.930Z,0.90
2022-12-26T13:12:07.232Z,1.05
2022-12-26T13:14:44.175Z,0.98
2022-12-26T13:17:17.640Z,0.90
2022-12-26T13:19:56.140Z,0.90
2022-12-26T13:22:58.670Z,2.28
2022-12-26T13:25:31.869Z,1.02
2022-12-26T13:28:09.639Z,0.60
2022-12-26T13:30:37.911Z,1.20
2022-12-26T13:33:06.079Z,1.13
2022-12-26T13:35:58.994Z,0.95
2022-12-26T13:41:58.479Z,1.10
2022-12-26T13:44:27.596Z,1.35
2022-12-26T13:46:57.670Z,1.05
2022-12-26T13:49:38.741Z,1.25
2022-12-26T13:57:45.009Z,1.35
2022-12-26T14:00:24.873Z,1.08
2022-12-26T14:03:19.569Z,0.98
2022-12-26T14:06:07.004Z,1.27
2022-12-26T14:08:55.235Z,1.00
2022-12-26T14:15:03.603Z,1.10
2022-12-26T14:18:01.577Z,1.30
2022-12-26T14:20:40.753Z,1.27
2022-12-26T14:23:33.921Z,1.50
2022-12-26T14:26:33.456Z,1.38
2022-12-26T14:29:40.675Z,1.35
2022-12-26T14:32:47.804Z,1.25
2022-12-26T14:35:38.930Z,1.40
2022-12-26T14:38:45.986Z,1.52
2022-12-26T14:41:36.449Z,1.25
2022-12-26T14:47:03.314Z,1.20
2022-12-26T14:55:40.980Z,1.42
2022-12-26T15:07:18.647Z,1.70
2022-12-26T15:10:16.965Z,1.60
2022-12-26T15:13:14.326Z,2.00
2022-12-26T15:16:07.545Z,1.65
2022-12-26T15:19:10.954Z,1.73
2022-12-26T15:22:13.769Z,1.70
2022-12-26T15:25:21.316Z,1.63
2022-12-26T15:28:17.658Z,1.48
2022-12-26T15:33:58.931Z,1.63
2022-12-26T15:36:40.479Z,2.20
2022-12-26T15:39:38.967Z,1.90
2022-12-26T15:42:38.611Z,2.17
2022-12-26T15:48:10.956Z,1.70
2022-12-26T15:51:04.704Z,2.15
2022-12-26T15:54:00.059Z,1.80
2022-12-26T15:56:57.218Z,2.40
2022-12-26T15:59:39.670Z,2.05
2022-12-26T16:05:45.477Z,2.20
2022-12-26T16:11:14.913Z,2.35
2022-12-26T16:13:52.443Z,2.55
2022-12-26T16:16:31.206Z,2.25
2022-12-26T16:19:13.795Z,2.92
2022-12-26T16:22:00.988Z,2.85
2022-12-26T16:24:28.481Z,3.83
2022-12-26T16:27:01.456Z,2.90
2022-12-26T16:32:06.245Z,2.35
2022-12-26T16:34:36.539Z,2.22
2022-12-26T16:37:04.044Z,2.05
2022-12-26T16:39:31.233Z,2.53
2022-12-26T16:42:05.864Z,2.20
2022-12-26T16:44:38.717Z,2.92
2022-12-26T16:47:10.440Z,3.20
2022-12-26T16:49:38.570Z,2.63
2022-12-26T16:52:07.966Z,1.80
2022-12-26T16:54:38.583Z,2.63
2022-12-26T16:57:19.698Z,2.35
2022-12-26T16:59:58.277Z,2.53
